Time;durP1;ratioP1;P1;durP2;ratioP2;P2;SDS_P1;SDS_P2;PMS_P1;PMS_P2;Temp;Humidity;BMP_temperature;BMP_pressure;BME280_temperature;BME280_humidity;BME280_pressure;Samples;Min_cycle;Max_cycle;Signal;HPM_P1;HPM_P2
2024/04/08 00:00:15;;;;;;;7.97;5.15;;;;;;;9.30;100.00;101123.13;5483449;26;20006;-71
2024/04/08 00:02:41;;;;;;;6.38;4.10;;;;;;;9.51;100.00;101150.84;5478434;26;20004;-72
2024/04/08 00:05:07;;;;;;;6.90;3.70;;;;;;;9.48;100.00;101130.97;5484761;26;20066;-71
2024/04/08 00:07:32;;;;;;;4.63;3.75;;;;;;;9.53;100.00;101141.47;5445816;26;20039;-70
2024/04/08 00:09:58;;;;;;;10.18;3.60;;;;;;;9.45;100.00;101123.06;5490066;26;20555;-72
2024/04/08 00:12:23;;;;;;;7.68;3.60;;;;;;;9.29;100.00;101090.44;5469438;26;20075;-70
2024/04/08 00:14:49;;;;;;;5.90;4.00;;;;;;;9.54;100.00;101095.19;5484638;26;20006;-70
2024/04/08 00:17:15;;;;;;;7.07;3.70;;;;;;;9.98;100.00;101116.28;5427684;26;20032;-70
2024/04/08 00:19:41;;;;;;;5.20;3.65;;;;;;;10.27;100.00;101134.88;5477111;26;19998;-70
2024/04/08 00:22:06;;;;;;;6.03;3.65;;;;;;;10.30;100.00;101131.56;5447761;26;19997;-71
2024/04/08 00:24:32;;;;;;;5.03;3.65;;;;;;;10.38;100.00;101132.88;5484593;26;19998;-70
2024/04/08 00:26:57;;;;;;;5.57;3.92;;;;;;;10.52;100.00;101133.53;5476825;26;19998;-74
2024/04/08 00:29:23;;;;;;;5.20;3.63;;;;;;;10.46;100.00;101102.25;5478092;26;20017;-71
2024/04/08 00:31:48;;;;;;;5.00;3.15;;;;;;;10.60;100.00;101116.69;5488221;26;20002;-71
2024/04/08 00:34:14;;;;;;;4.90;3.90;;;;;;;10.78;100.00;101128.69;5487805;26;20034;-71
2024/04/08 00:36:41;;;;;;;4.90;3.58;;;;;;;10.75;100.00;101095.00;5488554;26;20096;-72
2024/04/08 00:39:07;;;;;;;4.90;3.40;;;;;;;10.93;100.00;101113.00;5481334;26;20038;-70
2024/04/08 00:41:33;;;;;;;6.85;3.20;;;;;;;10.76;100.00;101095.06;5470694;26;19995;-71
2024/04/08 00:43:59;;;;;;;4.75;3.38;;;;;;;10.58;100.00;101089.03;5472440;26;20441;-74
2024/04/08 00:46:25;;;;;;;4.75;3.15;;;;;;;10.79;100.00;101120.13;5473192;26;20017;-70
2024/04/08 00:48:52;;;;;;;4.10;3.13;;;;;;;10.86;100.00;101122.19;5487833;26;20013;-70
2024/04/08 00:51:18;;;;;;;4.95;3.60;;;;;;;10.72;100.00;101089.69;5487585;26;20002;-73
2024/04/08 00:53:46;;;;;;;5.35;3.75;;;;;;;11.00;100.00;101120.25;5470464;26;19998;-70
2024/04/08 00:56:12;;;;;;;4.38;3.55;;;;;;;11.06;100.00;101123.09;5463596;26;20007;-72
2024/04/08 00:58:38;;;;;;;6.68;3.88;;;;;;;11.06;100.00;101136.03;5484413;26;20001;-73
2024/04/08 01:01:08;;;;;;;6.03;4.13;;;;;;;10.97;100.00;101143.38;5480014;26;20002;-71
2024/04/08 01:03:33;;;;;;;5.00;3.92;;;;;;;10.65;100.00;101117.81;5469778;26;20012;-70
2024/04/08 01:05:59;;;;;;;7.35;4.78;;;;;;;10.75;100.00;101151.81;5483037;26;19994;-74
2024/04/08 01:08:25;;;;;;;6.13;3.95;;;;;;;10.61;100.00;101133.09;5479321;26;20041;-71
2024/04/08 01:10:51;;;;;;;5.55;3.80;;;;;;;10.55;100.00;101136.25;5481611;26;20004;-70
2024/04/08 01:13:17;;;;;;;6.28;4.30;;;;;;;10.75;100.00;101139.75;5472051;26;20013;-70
2024/04/08 01:15:43;;;;;;;6.20;3.42;;;;;;;10.60;100.00;101110.66;5484588;26;20001;-71
2024/04/08 01:18:08;;;;;;;5.95;3.65;;;;;;;10.69;100.00;101118.81;5473236;26;19998;-74
2024/04/08 01:20:34;;;;;;;5.75;3.63;;;;;;;10.80;100.00;101146.06;5485793;26;20005;-71
2024/04/08 01:23:00;;;;;;;6.07;3.50;;;;;;;10.63;100.00;101134.03;5468310;26;20431;-75
2024/04/08 01:25:28;;;;;;;4.25;3.40;;;;;;;10.38;100.00;101109.66;5475391;26;20005;-70
2024/04/08 01:27:54;;;;;;;5.43;3.90;;;;;;;10.56;100.00;101138.00;5475569;26;20002;-70
2024/04/08 01:30:21;;;;;;;5.60;4.20;;;;;;;10.62;100.00;101152.94;5486062;26;20370;-73
2024/04/08 01:32:48;;;;;;;7.72;3.70;;;;;;;10.67;100.00;101148.88;5469827;26;20002;-70
2024/04/08 01:35:13;;;;;;;6.05;4.07;;;;;;;10.18;100.00;101152.47;5474135;26;20650;-74
2024/04/08 01:37:39;;;;;;;4.50;3.70;;;;;;;9.47;100.00;101154.06;5473784;26;20054;-71
2024/04/08 01:40:05;;;;;;;6.97;3.97;;;;;;;9.52;100.00;101162.91;5479758;26;19997;-72
2024/04/08 01:42:31;;;;;;;5.78;4.20;;;;;;;9.65;100.00;101147.28;5415696;26;19997;-70
2024/04/08 01:44:56;;;;;;;5.57;4.30;;;;;;;9.86;100.00;101152.66;5421952;26;19998;-70
2024/04/08 01:47:22;;;;;;;5.07;3.80;;;;;;;9.71;100.00;101108.03;5470352;26;20034;-70
2024/04/08 01:49:47;;;;;;;5.05;3.85;;;;;;;9.91;100.00;101147.72;5474776;26;20124;-71
2024/04/08 01:52:13;;;;;;;5.32;3.80;;;;;;;9.98;100.00;101149.81;5472658;26;20009;-69
2024/04/08 01:54:38;;;;;;;6.97;3.75;;;;;;;9.83;100.00;101115.50;5500428;26;20013;-75
2024/04/08 01:57:04;;;;;;;5.88;3.88;;;;;;;9.98;100.00;101148.91;5471020;26;20055;-73
2024/04/08 01:59:29;;;;;;;7.50;4.00;;;;;;;10.00;100.00;101155.03;5434658;26;20356;-69
2024/04/08 02:01:55;;;;;;;5.03;4.13;;;;;;;9.91;100.00;101155.47;5489558;26;20320;-71
2024/04/08 02:04:20;;;;;;;6.03;4.22;;;;;;;9.82;100.00;101150.72;5495459;26;19998;-71
2024/04/08 02:06:46;;;;;;;8.02;4.82;;;;;;;9.54;100.00;101141.59;5482732;26;20017;-70
2024/04/08 02:09:12;;;;;;;6.10;4.00;;;;;;;9.75;100.00;101158.09;5481674;26;20013;-73
2024/04/08 02:11:38;;;;;;;5.30;3.85;;;;;;;9.91;100.00;101157.19;5487723;26;19998;-71
2024/04/08 02:14:03;;;;;;;6.03;3.90;;;;;;;9.93;100.00;101155.53;5476171;26;20007;-71
2024/04/08 02:16:29;;;;;;;5.22;3.75;;;;;;;10.01;100.00;101156.81;5476486;26;20002;-70
2024/04/08 02:18:54;;;;;;;6.55;3.60;;;;;;;10.02;100.00;101159.47;5480129;26;20053;-71
2024/04/08 02:21:20;;;;;;;6.53;3.80;;;;;;;10.05;100.00;101171.63;5481385;26;20028;-71
2024/04/08 02:23:47;;;;;;;6.18;3.95;;;;;;;9.86;100.00;101160.38;5475814;26;20002;-72
2024/04/08 02:26:13;;;;;;;6.18;3.90;;;;;;;9.66;100.00;101146.47;5475950;26;20088;-71
2024/04/08 02:28:38;;;;;;;10.93;4.97;;;;;;;9.76;100.00;101146.94;5474612;26;19998;-74
2024/04/08 02:31:04;;;;;;;9.55;4.90;;;;;;;9.81;100.00;101150.66;5455776;26;19998;-72
2024/04/08 02:33:30;;;;;;;6.07;4.47;;;;;;;9.74;100.00;101154.59;5469459;26;20449;-73
2024/04/08 02:36:05;;;;;;;10.18;5.45;;;;;;;9.66;100.00;101145.59;5466131;26;20451;-70
2024/04/08 02:38:32;;;;;;;10.25;5.88;;;;;;;9.65;100.00;101136.09;5468457;26;19994;-76
2024/04/08 02:40:58;;;;;;;10.15;6.70;;;;;;;9.53;100.00;101114.03;5469534;26;20013;-73
2024/04/08 02:43:23;;;;;;;9.38;6.25;;;;;;;9.63;100.00;101135.13;5455138;26;19998;-71
2024/04/08 02:45:49;;;;;;;8.55;6.05;;;;;;;9.54;100.00;101136.44;5472630;26;20058;-72
2024/04/08 02:48:17;;;;;;;8.20;5.68;;;;;;;9.60;100.00;101153.03;5465552;26;20062;-72
2024/04/08 02:50:42;;;;;;;13.50;6.18;;;;;;;9.23;100.00;101162.25;5465391;26;20377;-71
2024/04/08 02:53:08;;;;;;;10.73;5.38;;;;;;;8.80;100.00;101140.22;5485672;26;20006;-73
2024/04/08 02:55:33;;;;;;;7.15;5.30;;;;;;;8.61;100.00;101164.06;5483572;26;20006;-71
2024/04/08 02:57:59;;;;;;;8.32;5.38;;;;;;;8.63;100.00;101159.88;5465065;26;20010;-70
2024/04/08 03:00:24;;;;;;;8.15;5.10;;;;;;;8.82;100.00;101159.22;5477437;26;19994;-70
2024/04/08 03:02:50;;;;;;;9.32;5.45;;;;;;;8.62;100.00;101145.22;5470750;26;20013;-71
2024/04/08 03:05:15;;;;;;;10.00;6.50;;;;;;;8.77;100.00;101150.34;5470189;26;20000;-70
2024/04/08 03:07:41;;;;;;;10.98;5.65;;;;;;;8.98;100.00;101152.31;5469656;26;20078;-73
2024/04/08 03:10:07;;;;;;;11.75;6.82;;;;;;;9.01;100.00;101147.31;5470064;26;20006;-73
2024/04/08 03:12:32;;;;;;;12.65;7.55;;;;;;;9.21;100.00;101149.31;5408642;26;20005;-71
2024/04/08 03:14:58;;;;;;;15.70;8.38;;;;;;;9.23;100.00;101150.28;5469411;26;20465;-71
2024/04/08 03:17:23;;;;;;;13.63;6.80;;;;;;;9.37;100.00;101169.03;5468851;26;20413;-73
2024/04/08 03:19:53;;;;;;;13.57;7.43;;;;;;;9.36;100.00;101164.69;5474012;26;20078;-76
2024/04/08 03:22:20;;;;;;;12.10;7.00;;;;;;;9.28;100.00;101162.50;5471158;26;20005;-70
2024/04/08 03:24:45;;;;;;;15.88;8.52;;;;;;;9.23;100.00;101176.03;5473644;26;20008;-71
2024/04/08 03:27:11;;;;;;;15.48;10.85;;;;;;;9.14;100.00;101170.38;5481781;26;19991;-71
2024/04/08 03:29:36;;;;;;;14.13;9.32;;;;;;;9.30;100.00;101186.69;5457305;26;20002;-70
2024/04/08 03:32:02;;;;;;;11.38;7.53;;;;;;;9.34;100.00;101184.31;5463559;26;20006;-71
2024/04/08 03:34:27;;;;;;;8.90;5.70;;;;;;;8.85;100.00;101177.41;5473716;26;20000;-71
2024/04/08 03:36:53;;;;;;;10.20;5.82;;;;;;;8.90;100.00;101186.25;5461047;26;20034;-74
2024/04/08 03:39:18;;;;;;;9.18;5.25;;;;;;;8.58;100.00;101181.91;5465561;26;20405;-76
2024/04/08 03:41:44;;;;;;;8.95;6.05;;;;;;;8.61;100.00;101184.66;5467437;26;20002;-71
2024/04/08 03:44:10;;;;;;;12.65;6.97;;;;;;;8.36;100.00;101170.38;5480991;26;20078;-71
2024/04/08 03:46:35;;;;;;;11.25;6.30;;;;;;;8.36;100.00;101175.50;5442169;26;20006;-72
2024/04/08 03:49:02;;;;;;;9.30;6.45;;;;;;;8.08;100.00;101168.75;5478114;26;20014;-71
2024/04/08 03:51:28;;;;;;;14.48;7.82;;;;;;;7.85;100.00;101167.41;5469368;26;20007;-71
2024/04/08 03:53:53;;;;;;;19.77;8.10;;;;;;;7.80;100.00;101184.25;5475200;26;20010;-70
2024/04/08 03:56:19;;;;;;;45.35;9.63;;;;;;;7.28;100.00;101128.03;5477422;26;20435;-70
2024/04/08 03:58:45;;;;;;;16.83;7.82;;;;;;;7.58;100.00;101182.09;5469470;26;19998;-71
2024/04/08 04:01:11;;;;;;;25.27;8.90;;;;;;;7.84;100.00;101177.59;5436716;26;20010;-73
2024/04/08 04:03:36;;;;;;;31.73;9.40;;;;;;;8.04;100.00;101184.81;5480047;26;20086;-73
2024/04/08 04:06:02;;;;;;;20.67;9.07;;;;;;;8.08;100.00;101160.16;5488349;26;20006;-71
2024/04/08 04:08:28;;;;;;;30.58;9.05;;;;;;;8.40;100.00;101187.75;5489543;26;20005;-71
2024/04/08 04:10:55;;;;;;;96.53;10.20;;;;;;;8.29;100.00;101200.78;5470292;26;20002;-70
2024/04/08 04:13:20;;;;;;;36.30;9.10;;;;;;;8.07;100.00;101191.81;5385869;26;20037;-71
2024/04/08 04:15:46;;;;;;;101.68;10.73;;;;;;;7.94;100.00;101192.78;5465130;26;19998;-73
2024/04/08 04:18:11;;;;;;;55.28;8.43;;;;;;;8.09;100.00;101200.53;5480823;26;20393;-71
2024/04/08 04:20:43;;;;;;;22.33;7.20;;;;;;;8.29;100.00;101206.81;5468485;26;20394;-71
2024/04/08 04:23:14;;;;;;;42.90;8.25;;;;;;;8.41;100.00;101211.78;5476848;26;20038;-76
2024/04/08 04:25:41;;;;;;;53.33;7.90;;;;;;;8.41;100.00;101209.19;5479220;26;19998;-71
2024/04/08 04:28:07;;;;;;;35.13;8.77;;;;;;;8.28;100.00;101196.44;5477828;26;20825;-71
2024/04/08 04:30:33;;;;;;;38.42;7.75;;;;;;;8.18;100.00;101206.19;5472304;26;20007;-75
2024/04/08 04:33:00;;;;;;;36.50;7.05;;;;;;;8.07;100.00;101192.72;5463615;26;20009;-70
2024/04/08 04:35:27;;;;;;;27.35;6.85;;;;;;;8.09;100.00;101188.53;5470880;26;20013;-71
2024/04/08 04:37:52;;;;;;;44.10;7.13;;;;;;;7.74;100.00;101133.38;5472313;26;20039;-71
2024/04/08 04:40:18;;;;;;;24.88;6.85;;;;;;;8.05;100.00;101190.81;5436380;26;20006;-71
2024/04/08 04:42:45;;;;;;;18.33;7.13;;;;;;;7.63;100.00;101136.97;5469252;26;20026;-72
2024/04/08 04:45:10;;;;;;;9.98;6.63;;;;;;;7.87;100.00;101195.78;5406841;26;19998;-70
2024/04/08 04:47:36;;;;;;;16.48;7.50;;;;;;;7.59;100.00;101176.16;5469713;26;20448;-71
2024/04/08 04:50:02;;;;;;;16.20;7.13;;;;;;;7.96;100.00;101209.16;5465175;26;20430;-70
2024/04/08 04:52:27;;;;;;;10.45;5.93;;;;;;;8.09;100.00;101205.66;5413901;26;20027;-71
2024/04/08 04:54:53;;;;;;;8.23;5.40;;;;;;;7.91;100.00;101196.06;5464126;26;19998;-71
2024/04/08 04:57:19;;;;;;;12.10;6.97;;;;;;;7.99;100.00;101208.47;5462276;26;20007;-74
2024/04/08 04:59:45;;;;;;;9.40;6.53;;;;;;;8.12;100.00;101204.94;5474261;26;20346;-71
2024/04/08 05:02:10;;;;;;;9.85;6.72;;;;;;;8.39;100.00;101210.81;5476351;26;20074;-74
2024/04/08 05:04:36;;;;;;;9.80;6.70;;;;;;;8.51;100.00;101211.56;5489130;26;19998;-70
2024/04/08 05:07:01;;;;;;;9.05;5.63;;;;;;;8.56;100.00;101222.09;5489317;26;19994;-71
2024/04/08 05:09:27;;;;;;;6.72;5.43;;;;;;;8.56;100.00;101207.56;5489054;26;20065;-70
2024/04/08 05:11:53;;;;;;;8.85;6.03;;;;;;;8.79;100.00;101225.09;5399492;26;20010;-71
2024/04/08 05:14:19;;;;;;;7.97;6.10;;;;;;;8.80;100.00;101193.38;5466808;26;19994;-70
2024/04/08 05:16:47;;;;;;;7.53;5.85;;;;;;;8.98;100.00;101219.28;5468010;26;20060;-71
2024/04/08 05:19:12;;;;;;;5.35;4.35;;;;;;;9.05;100.00;101217.13;5458244;26;20003;-71
2024/04/08 05:21:38;;;;;;;6.40;4.97;;;;;;;9.01;100.00;101222.03;5476791;26;20062;-72
2024/04/08 05:24:04;;;;;;;6.05;4.35;;;;;;;9.00;100.00;101230.56;5479262;26;20074;-72
2024/04/08 05:26:29;;;;;;;10.20;5.28;;;;;;;8.83;100.00;101215.03;5469593;26;20037;-72
2024/04/08 05:28:55;;;;;;;14.40;5.85;;;;;;;8.90;100.00;101224.88;5469045;26;20560;-74
2024/04/08 05:31:20;;;;;;;11.02;5.75;;;;;;;8.99;100.00;101223.66;5464198;26;20009;-71
2024/04/08 05:33:46;;;;;;;11.00;6.47;;;;;;;8.95;100.00;101231.97;5475704;26;19994;-71
2024/04/08 05:36:12;;;;;;;11.93;7.03;;;;;;;9.04;100.00;101214.47;5460089;26;20017;-70
2024/04/08 05:38:38;;;;;;;12.43;7.30;;;;;;;9.26;100.00;101231.09;5464974;26;20011;-72
2024/04/08 05:41:04;;;;;;;12.40;7.43;;;;;;;9.31;100.00;101230.56;5468201;26;19998;-70
2024/04/08 05:43:31;;;;;;;10.43;7.90;;;;;;;9.39;100.00;101233.53;5477136;26;20051;-71
2024/04/08 05:45:57;;;;;;;9.75;6.53;;;;;;;9.49;100.00;101234.94;5488275;26;19998;-71
2024/04/08 05:48:22;;;;;;;9.05;5.95;;;;;;;9.35;100.00;101235.06;5475637;26;20042;-73
2024/04/08 05:50:49;;;;;;;11.02;7.10;;;;;;;9.26;100.00;101237.16;5469211;26;20015;-72
2024/04/08 05:53:15;;;;;;;9.65;6.32;;;;;;;9.18;100.00;101230.69;5451950;26;19998;-71
2024/04/08 05:55:41;;;;;;;12.75;6.82;;;;;;;9.31;100.00;101234.81;5461845;26;20006;-72
2024/04/08 05:58:08;;;;;;;9.10;6.65;;;;;;;9.13;100.00;101235.56;5473723;26;20003;-72
2024/04/08 06:00:36;;;;;;;8.90;6.72;;;;;;;9.28;100.00;101224.34;5468063;26;20035;-73
2024/04/08 06:03:02;;;;;;;10.35;7.30;;;;;;;9.47;100.00;101224.53;5469575;26;20345;-72
2024/04/08 06:05:28;;;;;;;9.68;6.43;;;;;;;9.52;100.00;101229.91;5433630;26;19993;-71
2024/04/08 06:07:53;;;;;;;9.02;6.97;;;;;;;9.19;100.00;101238.50;5409591;26;20503;-70
2024/04/08 06:10:20;;;;;;;11.57;7.05;;;;;;;9.27;100.00;101240.59;5465854;26;20030;-70
2024/04/08 06:12:46;;;;;;;9.00;7.07;;;;;;;9.16;100.00;101186.81;5471521;26;20326;-72
2024/04/08 06:15:13;;;;;;;11.95;7.82;;;;;;;9.74;100.00;101241.41;5433897;26;20008;-71
2024/04/08 06:17:38;;;;;;;11.38;7.88;;;;;;;10.08;100.00;101241.47;5472125;26;19998;-70
2024/04/08 06:20:04;;;;;;;9.07;6.70;;;;;;;10.32;100.00;101246.09;5458782;26;20010;-73
2024/04/08 06:22:30;;;;;;;9.48;7.30;;;;;;;10.48;100.00;101243.50;5471812;26;20012;-72
2024/04/08 06:24:56;;;;;;;9.50;6.45;;;;;;;10.78;100.00;101245.81;5469074;26;19994;-71
2024/04/08 06:27:22;;;;;;;8.60;6.45;;;;;;;11.03;100.00;101243.50;5464705;26;20478;-70
2024/04/08 06:29:47;;;;;;;8.73;6.68;;;;;;;11.25;100.00;101242.84;5463783;26;20065;-75
2024/04/08 06:32:13;;;;;;;9.30;5.68;;;;;;;11.06;100.00;101181.66;5470539;26;20325;-71
2024/04/08 06:34:38;;;;;;;8.73;6.63;;;;;;;11.46;100.00;101238.66;5467177;26;19998;-72
2024/04/08 06:37:04;;;;;;;7.68;6.38;;;;;;;11.62;100.00;101241.94;5467114;26;20038;-73
2024/04/08 06:39:29;;;;;;;14.18;8.15;;;;;;;11.61;100.00;101216.88;5463077;26;19995;-72
2024/04/08 06:41:55;;;;;;;8.88;6.75;;;;;;;11.75;100.00;101236.50;5465159;26;19998;-70
2024/04/08 06:44:20;;;;;;;9.30;6.43;;;;;;;11.96;100.00;101249.53;5425484;26;20418;-70
2024/04/08 06:46:46;;;;;;;9.48;6.57;;;;;;;12.21;100.00;101241.94;5436483;26;19997;-72
2024/04/08 06:49:13;;;;;;;9.23;6.85;;;;;;;11.90;100.00;101241.47;5429963;26;20009;-71
2024/04/08 06:51:38;;;;;;;8.55;6.80;;;;;;;12.00;100.00;101237.63;5430333;26;20011;-70
2024/04/08 06:54:04;;;;;;;8.30;5.93;;;;;;;12.35;100.00;101245.09;5468947;26;20022;-72
2024/04/08 06:56:30;;;;;;;9.07;6.45;;;;;;;12.23;100.00;101196.28;5466547;26;20087;-70
2024/04/08 06:58:55;;;;;;;9.45;6.65;;;;;;;12.56;100.00;101234.75;5404193;26;19998;-71
2024/04/08 07:01:21;;;;;;;10.32;6.43;;;;;;;12.67;100.00;101248.16;5467383;26;20398;-75
2024/04/08 07:03:47;;;;;;;7.95;6.28;;;;;;;13.00;100.00;101251.22;5467100;26;20449;-71
2024/04/08 07:06:13;;;;;;;9.05;6.45;;;;;;;13.16;100.00;101239.75;5470582;26;20009;-71
2024/04/08 07:08:38;;;;;;;10.88;7.30;;;;;;;13.10;100.00;101240.38;5470749;26;19994;-72
2024/04/08 07:11:04;;;;;;;7.70;6.10;;;;;;;13.43;100.00;101250.31;5466441;26;20453;-74
2024/04/08 07:13:29;;;;;;;8.48;5.85;;;;;;;13.59;100.00;101250.88;5454324;26;20006;-72
2024/04/08 07:15:56;;;;;;;8.65;5.53;;;;;;;13.79;100.00;101238.63;5470411;26;19998;-71
2024/04/08 07:18:25;;;;;;;8.82;5.28;;;;;;;13.80;100.00;101245.59;5466018;26;19995;-73
2024/04/08 07:20:50;;;;;;;7.93;4.97;;;;;;;13.63;100.00;101233.72;5462272;26;19998;-74
2024/04/08 07:23:16;;;;;;;9.55;5.22;;;;;;;13.70;100.00;101235.72;5434665;26;20806;-71
2024/04/08 07:25:42;;;;;;;6.35;4.45;;;;;;;13.73;100.00;101223.75;5466703;26;19995;-71
2024/04/08 07:28:07;;;;;;;5.20;3.33;;;;;;;13.88;100.00;101240.69;5469024;26;20062;-73
2024/04/08 07:30:36;;;;;;;4.85;3.83;;;;;;;13.97;100.00;101238.44;5466459;26;20006;-76
2024/04/08 07:33:01;;;;;;;6.00;3.72;;;;;;;14.00;100.00;101233.34;5469942;26;20030;-70
2024/04/08 07:35:27;;;;;;;7.00;3.60;;;;;;;14.30;100.00;101231.75;5470014;26;20055;-70
2024/04/08 07:37:52;;;;;;;3.92;2.78;;;;;;;14.38;100.00;101244.16;5462425;26;20333;-74
2024/04/08 07:40:18;;;;;;;5.78;3.03;;;;;;;14.40;100.00;101234.72;5462027;26;20498;-71
2024/04/08 07:42:43;;;;;;;5.18;2.65;;;;;;;14.63;100.00;101203.41;5413923;26;20005;-72
2024/04/08 07:45:09;;;;;;;3.88;2.20;;;;;;;14.92;100.00;101237.28;5472647;26;20005;-72
2024/04/08 07:47:35;;;;;;;3.20;2.17;;;;;;;14.83;97.24;101211.88;5474345;26;20461;-71
2024/04/08 07:50:02;;;;;;;3.30;2.17;;;;;;;14.99;99.42;101225.34;5456414;26;20010;-77
2024/04/08 07:52:28;;;;;;;4.35;2.28;;;;;;;14.97;95.70;101209.69;5470939;26;19995;-76
2024/04/08 07:54:53;;;;;;;6.47;2.03;;;;;;;15.27;93.79;101244.41;5473033;26;19995;-72
2024/04/08 07:57:19;;;;;;;2.72;1.50;;;;;;;15.33;90.22;101232.44;5473727;26;20349;-70
2024/04/08 07:59:44;;;;;;;4.07;2.00;;;;;;;15.51;95.90;101237.31;5473475;26;20009;-75
2024/04/08 08:02:10;;;;;;;2.50;1.77;;;;;;;15.50;94.16;101211.22;5470669;26;20002;-72
2024/04/08 08:04:35;;;;;;;3.78;1.70;;;;;;;15.77;93.52;101233.69;5464938;26;20083;-70
2024/04/08 08:07:01;;;;;;;2.80;1.50;;;;;;;15.79;91.91;101217.28;5469719;26;19994;-71
2024/04/08 08:09:26;;;;;;;3.58;2.08;;;;;;;16.10;93.23;101244.19;5473713;26;20079;-72
2024/04/08 08:11:52;;;;;;;4.40;1.60;;;;;;;16.24;88.29;101251.50;5469430;26;20543;-71
2024/04/08 08:14:17;;;;;;;2.45;1.80;;;;;;;16.34;90.14;101232.63;5473568;26;20001;-70
2024/04/08 08:16:43;;;;;;;2.95;1.60;;;;;;;16.46;87.28;101247.69;5471762;26;20009;-71
2024/04/08 08:19:09;;;;;;;2.55;1.50;;;;;;;16.47;88.72;101239.03;5469503;26;20004;-71
2024/04/08 08:21:34;;;;;;;4.68;2.15;;;;;;;16.57;79.84;101227.97;5432382;26;20002;-72
2024/04/08 08:24:00;;;;;;;3.17;1.42;;;;;;;16.88;83.08;101235.66;5485921;26;20009;-71
2024/04/08 08:26:28;;;;;;;3.40;1.20;;;;;;;16.77;84.33;101202.41;5472750;26;20003;-74
2024/04/08 08:28:54;;;;;;;2.22;1.35;;;;;;;17.23;85.65;101240.81;5466972;26;20336;-70
2024/04/08 08:31:20;;;;;;;4.60;1.45;;;;;;;17.35;83.53;101238.50;5468912;26;19998;-72
2024/04/08 08:33:46;;;;;;;2.33;1.30;;;;;;;17.40;82.26;101241.22;5472807;26;19991;-71
2024/04/08 08:36:12;;;;;;;1.63;1.30;;;;;;;17.39;78.57;101234.22;5426605;26;20009;-72
2024/04/08 08:38:37;;;;;;;3.50;1.17;;;;;;;17.45;78.50;101229.13;5465950;26;19994;-72
2024/04/08 08:41:03;;;;;;;3.13;1.20;;;;;;;17.72;78.51;101244.47;5473106;26;20030;-72
2024/04/08 08:43:30;;;;;;;3.13;1.30;;;;;;;17.89;74.88;101244.78;5475582;26;19995;-72
2024/04/08 08:45:56;;;;;;;4.70;1.33;;;;;;;18.03;75.59;101225.91;5469325;26;20004;-76
2024/04/08 08:48:21;;;;;;;2.42;1.50;;;;;;;18.13;75.81;101230.47;5468525;26;19995;-71
2024/04/08 08:50:48;;;;;;;2.17;1.30;;;;;;;18.23;75.79;101228.88;5465659;26;20328;-72
2024/04/08 08:53:14;;;;;;;3.35;1.75;;;;;;;18.28;73.42;101214.19;5468948;26;20070;-75
2024/04/08 08:55:40;;;;;;;3.65;1.42;;;;;;;18.36;74.83;101214.31;5466668;26;20469;-72
2024/04/08 08:58:06;;;;;;;4.93;1.30;;;;;;;18.59;74.54;101215.56;5468423;26;20014;-73
2024/04/08 09:00:32;;;;;;;4.38;1.65;;;;;;;18.56;72.82;101210.28;5472865;26;20022;-72
2024/04/08 09:02:59;;;;;;;3.67;1.63;;;;;;;18.57;72.69;101185.03;5456934;26;20337;-72
2024/04/08 09:05:24;;;;;;;5.50;1.50;;;;;;;18.89;69.04;101213.38;5468151;26;20048;-73
2024/04/08 09:07:51;;;;;;;4.13;1.25;;;;;;;18.91;68.29;101183.78;5464665;26;20001;-73
2024/04/08 09:10:16;;;;;;;3.90;1.55;;;;;;;19.20;71.78;101200.75;5469090;26;20088;-70
2024/04/08 09:12:42;;;;;;;9.13;3.13;;;;;;;19.34;66.36;101206.16;5468726;26;19999;-72
2024/04/08 09:15:12;;;;;;;6.75;2.05;;;;;;;19.47;69.19;101213.31;5471549;26;19999;-71
2024/04/08 09:17:38;;;;;;;5.93;2.00;;;;;;;19.56;67.69;101197.72;5472793;26;19994;-73
2024/04/08 09:20:04;;;;;;;6.82;1.83;;;;;;;19.65;67.14;101196.94;5474678;26;20512;-72
2024/04/08 09:22:31;;;;;;;2.15;1.38;;;;;;;19.68;68.18;101202.22;5433280;26;19990;-70
2024/04/08 09:24:57;;;;;;;2.70;1.30;;;;;;;19.76;67.45;101193.56;5470306;26;20452;-72
2024/04/08 09:27:23;;;;;;;3.08;1.55;;;;;;;19.77;68.87;101190.94;5469835;26;19999;-72
2024/04/08 09:29:49;;;;;;;3.67;1.50;;;;;;;19.85;63.06;101196.28;5460162;26;20010;-71
2024/04/08 09:32:18;;;;;;;2.17;1.30;;;;;;;19.99;64.61;101183.34;5468731;26;20010;-72
2024/04/08 09:34:44;;;;;;;2.95;1.30;;;;;;;20.07;66.98;101178.19;5463440;26;20005;-71
2024/04/08 09:37:12;;;;;;;2.85;1.52;;;;;;;20.09;65.81;101172.09;5468152;26;19994;-74
2024/04/08 09:39:39;;;;;;;2.28;1.48;;;;;;;20.25;63.63;101180.06;5457271;26;20010;-71
2024/04/08 09:42:08;;;;;;;7.45;1.48;;;;;;;20.22;63.87;101182.69;5470520;26;19994;-72
2024/04/08 09:44:34;;;;;;;4.78;1.45;;;;;;;20.30;67.98;101167.88;5484079;26;20001;-70
2024/04/08 09:47:01;;;;;;;3.40;1.42;;;;;;;20.43;66.71;101174.09;5476238;26;20002;-73
2024/04/08 09:49:27;;;;;;;2.70;1.30;;;;;;;20.37;68.11;101153.94;5468304;26;20448;-71
2024/04/08 09:51:54;;;;;;;3.90;1.33;;;;;;;20.57;62.76;101164.56;5471726;26;20009;-71
2024/04/08 09:54:22;;;;;;;4.10;1.42;;;;;;;20.32;62.51;101132.94;5467726;26;20421;-71
2024/04/08 09:56:57;;;;;;;6.38;1.80;;;;;;;20.38;59.92;101157.47;5471467;26;20001;-71
2024/04/08 09:59:24;;;;;;;2.72;1.48;;;;;;;20.39;62.19;101152.22;5456122;26;20445;-74
2024/04/08 10:01:53;;;;;;;4.93;1.20;;;;;;;20.68;62.86;101156.78;5396143;26;20072;-76
2024/04/08 10:04:20;;;;;;;2.57;1.60;;;;;;;20.82;61.03;101152.53;5395768;26;20008;-78
2024/04/08 10:06:47;;;;;;;2.42;1.17;;;;;;;20.97;56.97;101140.34;5393819;26;19996;-71
2024/04/08 10:09:14;;;;;;;1.90;1.17;;;;;;;21.13;51.96;101134.31;5396009;26;20024;-71
2024/04/08 10:11:49;;;;;;;1.67;1.20;;;;;;;21.10;49.58;101094.91;5331827;26;19996;-72
2024/04/08 10:14:19;;;;;;;2.30;1.30;;;;;;;21.50;51.31;101125.66;5362052;26;20333;-70
2024/04/08 10:16:48;;;;;;;3.10;1.25;;;;;;;21.69;52.38;101115.22;5372991;26;20015;-71
2024/04/08 10:19:14;;;;;;;5.15;1.67;;;;;;;21.83;46.74;101108.19;5392391;26;19996;-72
2024/04/08 10:21:39;;;;;;;4.35;1.48;;;;;;;21.97;50.79;101102.97;5353159;26;20012;-72
2024/04/08 10:24:06;;;;;;;7.22;1.92;;;;;;;22.13;47.68;101106.44;5390790;26;20068;-75
2024/04/08 10:26:34;;;;;;;3.83;1.40;;;;;;;22.33;51.61;101103.81;5393968;26;20003;-74
2024/04/08 10:29:01;;;;;;;8.98;2.42;;;;;;;22.33;47.86;101100.28;5378533;26;20007;-71
2024/04/08 10:31:30;;;;;;;4.85;1.20;;;;;;;22.38;49.17;101098.56;5387539;26;20000;-72
2024/04/08 10:33:56;;;;;;;3.30;1.40;;;;;;;22.39;52.37;101066.13;5474882;26;20651;-73
2024/04/08 10:36:21;;;;;;;4.40;1.67;;;;;;;22.60;47.71;101073.09;5467268;26;20007;-77
2024/04/08 10:38:47;;;;;;;8.25;1.90;;;;;;;22.69;48.21;101069.53;5470821;26;20007;-72
2024/04/08 10:41:12;;;;;;;4.95;1.48;;;;;;;;;;5471005;26;20341;-71
2024/04/08 10:43:38;;;;;;;5.53;1.25;;;;;;;22.61;48.95;100990.63;5470208;26;20002;-72
2024/04/08 10:46:05;;;;;;;3.72;1.38;;;;;;;23.09;47.15;101062.34;5467332;26;20002;-72
2024/04/08 10:48:37;;;;;;;7.03;1.75;;;;;;;23.13;47.13;101055.31;5435669;26;20010;-76
2024/04/08 10:51:02;;;;;;;3.40;1.10;;;;;;;23.17;44.21;101056.19;5461181;26;20425;-72
2024/04/08 10:53:28;;;;;;;1.63;0.77;;;;;;;23.33;43.12;101065.75;5466518;26;19995;-71
2024/04/08 10:55:57;;;;;;;2.17;0.80;;;;;;;23.23;41.65;101053.53;5457659;26;20066;-73
2024/04/08 10:58:22;;;;;;;6.13;1.50;;;;;;;23.23;42.93;101043.00;5463305;26;19994;-73
2024/04/08 11:00:48;;;;;;;2.33;0.90;;;;;;;23.52;43.29;101047.19;5460153;26;20280;-74
2024/04/08 11:03:13;;;;;;;6.15;1.50;;;;;;;23.52;40.93;101028.72;5475459;26;19998;-73
2024/04/08 11:05:40;;;;;;;2.05;1.10;;;;;;;23.74;41.63;101042.63;5487437;26;20005;-71
2024/04/08 11:08:08;;;;;;;1.55;0.93;;;;;;;23.77;40.44;101047.84;5455047;26;20005;-73
2024/04/08 11:10:33;;;;;;;3.70;0.98;;;;;;;23.82;41.72;101045.19;5485659;26;20005;-72
2024/04/08 11:13:00;;;;;;;5.38;1.30;;;;;;;23.89;40.18;101045.09;5463219;26;20109;-69
2024/04/08 11:15:28;;;;;;;1.83;0.80;;;;;;;23.96;39.33;101035.38;5466317;26;20078;-73